Time;durP1;ratioP1;P1;durP2;ratioP2;P2;SDS_P1;SDS_P2;PMS_P1;PMS_P2;Temp;Humidity;BMP_temperature;BMP_pressure;BME280_temperature;BME280_humidity;BME280_pressure;Samples;Min_cycle;Max_cycle;Signal;HPM_P1;HPM_P2
2021/03/10 00:02:19;;;;;;;;;;;;;;;10.61;34.45;101775.03;4805368;29;19930;-72
2021/03/10 00:05:04;;;;;;;;;;;;;;;10.57;34.64;101768.03;4805559;29;20379;-72
2021/03/10 00:07:33;;;;;;;;;;;;;;;10.54;34.38;101768.06;4805369;29;20414;-72
2021/03/10 00:10:04;;;;;;;;;;;;;;;10.48;34.50;101768.13;4804874;29;19940;-72
2021/03/10 00:12:35;;;;;;;;;;;;;;;10.45;35.01;101774.31;4804819;29;19929;-72
2021/03/10 00:15:06;;;;;;;;;;;;;;;10.39;34.84;101771.78;4804886;29;19978;-72
2021/03/10 00:17:35;;;;;;;;;;;;;;;10.33;34.93;101775.28;4805628;29;19929;-72
2021/03/10 00:20:07;;;;;;;;;;;;;;;10.29;34.55;101768.28;4805012;29;20396;-72
2021/03/10 00:22:37;;;;;;;;;;;;;;;10.25;34.48;101775.38;4805176;29;20268;-73
2021/03/10 00:28:52;;;;;;;;;;;;;;;10.16;34.67;101771.94;4804973;29;20016;-72
2021/03/10 00:31:23;;;;;;;;;;;;;;;10.11;34.77;101770.22;4805278;29;20394;-72
2021/03/10 00:33:52;;;;;;;;;;;;;;;10.04;35.15;101762.38;4805002;29;20391;-72
2021/03/10 00:36:21;;;;;;;;;;;;;;;9.97;35.28;101769.47;4804971;29;20372;-72
2021/03/10 00:38:51;;;;;;;;;;;;;;;9.95;34.94;101768.59;4804543;29;19929;-72
2021/03/10 00:41:20;;;;;;;;;;;;;;;9.91;35.42;101767.75;4804611;29;20018;-72
2021/03/10 00:43:50;;;;;;;;;;;;;;;9.88;34.91;101766.91;4804438;29;20379;-72
2021/03/10 00:46:19;;;;;;;;;;;;;;;9.85;35.36;101766.91;4804821;29;19940;-72
2021/03/10 00:48:49;;;;;;;;;;;;;;;9.79;34.88;101767.84;4804822;29;19972;-72
2021/03/10 00:51:19;;;;;;;;;;;;;;;9.75;34.76;101764.34;4804897;29;20295;-72
2021/03/10 00:53:49;;;;;;;;;;;;;;;9.72;35.03;101764.38;4804266;29;20367;-72
2021/03/10 00:59:59;;;;;;;;;;;;;;;9.62;35.14;101760.91;4808195;29;20307;-72
2021/03/10 01:02:31;;;;;;;;;;;;;;;9.56;35.52;101765.38;4808324;29;20044;-72
2021/03/10 01:05:03;;;;;;;;;;;;;;;9.55;35.43;101761.00;4807818;29;20439;-72
2021/03/10 01:07:32;;;;;;;;;;;;;;;9.50;35.38;101760.16;4808275;29;20302;-72
2021/03/10 01:10:03;;;;;;;;;;;;;;;9.45;35.40;101754.88;4807691;29;20360;-72
2021/03/10 01:12:33;;;;;;;;;;;;;;;9.39;35.54;101760.19;4808429;29;20303;-72
2021/03/10 01:15:03;;;;;;;;;;;;;;;9.36;35.35;101754.94;4807494;29;20328;-72
2021/03/10 01:17:33;;;;;;;;;;;;;;;9.29;35.59;101760.25;4808245;29;20244;-72
2021/03/10 01:20:06;;;;;;;;;;;;;;;9.27;35.48;101766.44;4807643;29;20403;-72
2021/03/10 01:22:37;;;;;;;;;;;;;;;9.21;35.84;101751.50;4807207;29;19945;-73
2021/03/10 01:25:06;;;;;;;;;;;;;;;9.20;35.44;101762.94;4807806;29;20368;-72
2021/03/10 01:27:36;;;;;;;;;;;;;;;9.17;35.37;101756.81;4808262;29;20017;-72
2021/03/10 01:30:06;;;;;;;;;;;;;;;9.08;35.97;101755.97;4807387;29;19929;-72
2021/03/10 01:32:35;;;;;;;;;;;;;;;9.06;36.06;101755.13;4807513;29;20427;-72
2021/03/10 01:38:56;;;;;;;;;;;;;;;8.97;36.03;101747.25;4807549;29;19939;-72
2021/03/10 01:41:26;;;;;;;;;;;;;;;8.91;36.29;101745.50;4807468;29;20413;-72
2021/03/10 01:43:56;;;;;;;;;;;;;;;8.87;35.63;101735.84;4807184;29;20363;-72
2021/03/10 01:46:33;;;;;;;;;;;;;;;8.84;35.74;101734.97;4807293;29;19929;-72
2021/03/10 01:49:04;;;;;;;;;;;;;;;8.79;35.97;101738.50;4806948;29;20441;-72
2021/03/10 01:52:40;;;;;;;;;;;;;;;8.75;36.12;101744.69;4807333;29;20082;-72
2021/03/10 01:55:57;;;;;;;;;;;;;;;8.70;35.90;101746.47;4807178;29;19940;-72
2021/03/10 01:58:27;;;;;;;;;;;;;;;8.65;36.14;101735.03;4807644;29;20383;-72
2021/03/10 02:00:56;;;;;;;;;;;;;;;8.63;36.39;101739.47;4806982;29;19929;-72
2021/03/10 02:03:28;;;;;;;;;;;;;;;8.59;36.51;101737.72;4806945;29;19929;-72
2021/03/10 02:05:58;;;;;;;;;;;;;;;8.54;36.23;101727.19;4806094;29;19933;-72
2021/03/10 02:08:37;;;;;;;;;;;;;;;8.50;36.18;101733.34;4806179;29;20371;-72
2021/03/10 02:11:13;;;;;;;;;;;;;;;8.44;36.03;101728.94;4807201;29;20405;-72
2021/03/10 02:13:51;;;;;;;;;;;;;;;8.38;36.11;101728.97;4806688;29;20365;-72
2021/03/10 02:16:24;;;;;;;;;;;;;;;8.37;36.31;101732.47;4806911;29;19929;-72
2021/03/10 02:19:00;;;;;;;;;;;;;;;8.33;36.07;101730.72;4806352;29;20402;-72
2021/03/10 02:21:37;;;;;;;;;;;;;;;8.28;36.12;101729.84;4807177;29;20290;-72
2021/03/10 02:24:37;;;;;;;;;;;;;;;8.25;36.19;101727.22;4806761;29;19930;-72
2021/03/10 02:27:34;;;;;;;;;;;;;;;8.17;36.28;101731.63;4806689;29;20447;-72
2021/03/10 02:30:06;;;;;;;;;;;;;;;8.17;36.06;101729.88;4803353;29;20401;-72
2021/03/10 02:32:37;;;;;;;;;;;;;;;8.09;36.18;101714.06;4806447;29;19981;-72
2021/03/10 02:35:10;;;;;;;;;;;;;;;8.07;36.17;101713.19;4806807;29;19929;-72
2021/03/10 02:37:42;;;;;;;;;;;;;;;8.02;36.11;101716.72;4806719;29;20396;-72
2021/03/10 02:40:13;;;;;;;;;;;;;;;8.02;36.37;101714.09;4806393;29;19987;-72
2021/03/10 02:42:45;;;;;;;;;;;;;;;7.94;36.27;101728.13;4806682;29;19929;-72
2021/03/10 02:56:27;;;;;;;;;;;;;;;7.81;36.46;101715.84;4750640;30;19930;-72
2021/03/10 02:58:57;;;;;;;;;;;;;;;7.76;36.28;101709.69;4795173;29;20408;-72
2021/03/10 03:01:26;;;;;;;;;;;;;;;7.74;36.71;101719.38;4806010;29;20567;-72
2021/03/10 03:03:55;;;;;;;;;;;;;;;7.68;36.46;101714.97;4806248;29;20374;-72
2021/03/10 03:06:26;;;;;;;;;;;;;;;7.68;36.90;101714.09;4806286;29;20388;-72
2021/03/10 03:08:57;;;;;;;;;;;;;;;7.62;36.41;101710.59;4806176;29;20383;-72
2021/03/10 03:11:27;;;;;;;;;;;;;;;7.61;36.72;101714.09;4806122;29;20382;-72
2021/03/10 03:13:58;;;;;;;;;;;;;;;7.58;36.67;101700.06;4805316;29;20387;-72
2021/03/10 03:16:27;;;;;;;;;;;;;;;7.52;36.63;101703.56;4805990;29;20453;-72
2021/03/10 03:18:57;;;;;;;;;;;;;;;7.50;36.41;101709.69;4806025;29;19936;-72
2021/03/10 03:21:28;;;;;;;;;;;;;;;7.47;36.85;101707.94;4806194;29;19936;-72
2021/03/10 03:23:58;;;;;;;;;;;;;;;7.42;36.66;101710.59;4805963;29;20299;-72
2021/03/10 03:26:29;;;;;;;;;;;;;;;7.39;36.85;101710.56;4805640;29;20011;-72
2021/03/10 03:28:59;;;;;;;;;;;;;;;7.37;36.70;101714.06;4805131;29;20366;-72
2021/03/10 03:31:28;;;;;;;;;;;;;;;7.32;36.90;101707.03;4805983;29;20456;-72
2021/03/10 03:33:57;;;;;;;;;;;;;;;7.27;36.94;101710.56;4805822;29;19929;-72
2021/03/10 03:36:29;;;;;;;;;;;;;;;7.24;36.61;101707.94;4805664;29;20391;-72
2021/03/10 03:39:00;;;;;;;;;;;;;;;7.23;36.69;101714.06;4805269;29;20350;-72
2021/03/10 03:41:30;;;;;;;;;;;;;;;7.20;36.87;101721.97;4805406;29;20335;-72
2021/03/10 03:44:02;;;;;;;;;;;;;;;7.17;36.77;101730.72;4805024;29;20403;-72
2021/03/10 03:46:57;;;;;;;;;;;;;;;7.15;36.84;101727.19;4805449;29;19936;-72
2021/03/10 03:49:51;;;;;;;;;;;;;;;7.12;36.56;101725.44;4805596;29;20402;-72
2021/03/10 03:52:25;;;;;;;;;;;;;;;7.09;37.06;101733.34;4805670;29;20344;-72
2021/03/10 03:54:55;;;;;;;;;;;;;;;7.07;36.96;101728.94;4804807;29;20375;-72
2021/03/10 03:57:24;;;;;;;;;;;;;;;7.04;36.83;101715.75;4805269;29;20307;-72
2021/03/10 03:59:54;;;;;;;;;;;;;;;7.02;37.03;101714.88;4805287;29;20471;-72
2021/03/10 04:02:23;;;;;;;;;;;;;;;7.01;37.00;101721.03;4805351;29;20311;-72
2021/03/10 04:04:53;;;;;;;;;;;;;;;6.98;37.04;101722.75;4805321;29;20398;-72
2021/03/10 04:07:23;;;;;;;;;;;;;;;6.96;37.11;101721.88;4805201;29;19991;-72
2021/03/10 04:09:52;;;;;;;;;;;;;;;6.94;37.02;101730.66;4804939;29;20383;-72
2021/03/10 04:12:22;;;;;;;;;;;;;;;6.89;36.96;101725.34;4805284;29;20244;-72
2021/03/10 04:14:51;;;;;;;;;;;;;;;6.87;37.16;101727.13;4804773;29;20355;-72
2021/03/10 04:17:21;;;;;;;;;;;;;;;6.84;37.46;101729.72;4805499;29;19952;-72
2021/03/10 04:19:51;;;;;;;;;;;;;;;6.80;37.27;101723.59;4805235;29;19929;-72
2021/03/10 04:22:20;;;;;;;;;;;;;;;6.77;37.37;101726.19;4805091;29;20000;-72
2021/03/10 04:24:51;;;;;;;;;;;;;;;6.77;37.33;101728.81;4804497;29;20395;-72
2021/03/10 04:27:22;;;;;;;;;;;;;;;6.74;37.26;101715.66;4805381;29;19935;-72
2021/03/10 04:29:53;;;;;;;;;;;;;;;6.71;37.01;101720.03;4804923;29;20457;-72
2021/03/10 04:32:23;;;;;;;;;;;;;;;6.67;37.25;101720.88;4807351;29;20414;-72
2021/03/10 04:34:54;;;;;;;;;;;;;;;6.63;37.25;101714.72;4808451;29;19929;-72
2021/03/10 04:37:23;;;;;;;;;;;;;;;6.57;37.38;101723.47;4808136;29;20066;-72
2021/03/10 04:39:52;;;;;;;;;;;;;;;6.55;37.27;101726.97;4807978;29;19968;-72
2021/03/10 04:42:23;;;;;;;;;;;;;;;6.50;37.27;101726.97;4808470;29;20389;-72
2021/03/10 04:44:53;;;;;;;;;;;;;;;6.47;37.36;101726.94;4807952;29;19930;-72
2021/03/10 04:47:24;;;;;;;;;;;;;;;6.44;37.35;101729.56;4808645;29;20310;-72
2021/03/10 04:53:41;;;;;;;;;;;;;;;6.36;37.55;101729.50;4808414;29;19931;-72
2021/03/10 04:56:11;;;;;;;;;;;;;;;6.32;37.39;101730.38;4808008;29;20367;-72
2021/03/10 04:58:42;;;;;;;;;;;;;;;6.32;37.28;101733.00;4807917;29;20414;-72
2021/03/10 05:01:12;;;;;;;;;;;;;;;6.29;37.50;101731.22;4808533;29;19929;-72
2021/03/10 05:03:41;;;;;;;;;;;;;;;6.25;37.31;101729.44;4808078;29;19929;-72
2021/03/10 05:09:52;;;;;;;;;;;;;;;6.19;37.42;101726.78;4808316;29;19932;-72
2021/03/10 05:12:21;;;;;;;;;;;;;;;6.19;37.73;101731.16;4808128;29;20460;-72
2021/03/10 05:14:51;;;;;;;;;;;;;;;6.15;37.70;101725.88;4791027;29;20311;-72
2021/03/10 05:17:20;;;;;;;;;;;;;;;6.12;37.45;101739.00;4808115;29;20264;-72
2021/03/10 05:19:49;;;;;;;;;;;;;;;6.11;37.58;101736.38;4807695;29;19935;-72
2021/03/10 05:22:18;;;;;;;;;;;;;;;6.08;37.60;101731.97;4806751;29;20283;-72
2021/03/10 05:24:48;;;;;;;;;;;;;;;6.05;37.70;101729.28;4807949;29;19990;-72
2021/03/10 05:27:18;;;;;;;;;;;;;;;6.02;37.55;101739.78;4807827;29;19929;-72
2021/03/10 05:29:50;;;;;;;;;;;;;;;6.00;37.52;101740.66;4807702;29;20320;-72
2021/03/10 05:32:20;;;;;;;;;;;;;;;5.96;37.39;101729.19;4807490;29;20272;-72
2021/03/10 05:38:57;;;;;;;;;;;;;;;5.92;37.45;101738.81;4807952;29;19932;-72
2021/03/10 05:41:28;;;;;;;;;;;;;;;5.91;37.50;101746.66;4789402;30;19933;-72
2021/03/10 05:43:59;;;;;;;;;;;;;;;5.89;37.56;101737.91;4789448;29;20423;-72
2021/03/10 05:50:18;;;;;;;;;;;;;;;5.90;37.48;101748.44;4789406;30;20454;-72
2021/03/10 05:52:49;;;;;;;;;;;;;;;5.90;37.64;101744.94;4789668;29;20468;-71
2021/03/10 05:55:22;;;;;;;;;;;;;;;5.87;37.28;101750.13;4789648;30;19983;-72
2021/03/10 05:57:52;;;;;;;;;;;;;;;5.87;37.39;101753.66;4789559;29;20407;-72
2021/03/10 06:00:21;;;;;;;;;;;;;;;5.85;37.65;101752.75;4788981;30;19939;-72
2021/03/10 06:06:57;;;;;;;;;;;;;;;5.84;37.44;101765.88;4789213;30;19982;-71
2021/03/10 06:09:39;;;;;;;;;;;;;;;5.84;37.08;101769.38;4789318;30;19930;-72
2021/03/10 06:12:09;;;;;;;;;;;;;;;5.85;37.15;101765.88;4788669;30;20006;-72
2021/03/10 06:14:39;;;;;;;;;;;;;;;5.87;37.08;101769.41;4788463;30;20439;-72
2021/03/10 06:17:09;;;;;;;;;;;;;;;5.90;37.15;101771.19;4788440;30;20454;-72
2021/03/10 06:19:43;;;;;;;;;;;;;;;5.96;37.02;101768.59;4788721;30;20407;-72
2021/03/10 06:22:14;;;;;;;;;;;;;;;6.06;36.69;101772.22;4788935;30;20372;-72
2021/03/10 06:24:43;;;;;;;;;;;;;;;6.13;36.56;101771.38;4788699;30;20359;-73
2021/03/10 06:27:12;;;;;;;;;;;;;;;6.26;36.25;101765.34;4788716;30;20392;-72
2021/03/10 06:29:41;;;;;;;;;;;;;;;6.42;36.09;101770.72;4787911;30;20414;-72
2021/03/10 06:32:12;;;;;;;;;;;;;;;6.53;35.75;101778.69;4788163;30;19941;-71
2021/03/10 06:34:43;;;;;;;;;;;;;;;6.66;35.83;101777.88;4788448;30;20410;-70
2021/03/10 06:37:13;;;;;;;;;;;;;;;6.77;35.37;101783.19;4789401;29;20376;-71
2021/03/10 06:40:10;;;;;;;;;;;;;;;6.88;35.42;101786.75;4795777;29;19929;-71
2021/03/10 06:42:41;;;;;;;;;;;;;;;7.02;35.12;101786.78;4806546;29;19930;-71
2021/03/10 06:45:11;;;;;;;;;;;;;;;7.21;34.77;101795.66;4805593;29;20341;-71
2021/03/10 06:47:42;;;;;;;;;;;;;;;7.36;34.65;101793.94;4806288;29;19968;-71
2021/03/10 06:50:12;;;;;;;;;;;;;;;7.50;34.36;101794.84;4806298;29;19929;-72
2021/03/10 06:52:50;;;;;;;;;;;;;;;7.69;33.95;101789.59;4806328;29;19979;-71
2021/03/10 06:55:22;;;;;;;;;;;;;;;7.81;34.13;101800.16;4805999;29;20276;-71
2021/03/10 07:01:38;;;;;;;;;;;;;;;8.12;34.05;101808.06;4806248;29;19986;-72
2021/03/10 07:04:10;;;;;;;;;;;;;;;8.21;33.70;101808.06;4806179;29;19945;-71
2021/03/10 07:06:40;;;;;;;;;;;;;;;8.29;33.92;101802.78;4805890;29;20368;-71
2021/03/10 07:09:12;;;;;;;;;;;;;;;8.34;33.95;101801.03;4805894;29;19965;-73
2021/03/10 07:15:47;;;;;;;;;;;;;;;8.35;33.54;101804.53;4805478;29;19932;-72
2021/03/10 07:18:18;;;;;;;;;;;;;;;8.38;33.79;101794.88;4805750;29;20353;-71
2021/03/10 07:20:49;;;;;;;;;;;;;;;8.41;34.17;101794.00;4805796;29;20399;-72
2021/03/10 07:23:20;;;;;;;;;;;;;;;8.47;33.84;101794.88;4806054;29;19933;-72
2021/03/10 07:25:52;;;;;;;;;;;;;;;8.51;34.11;101794.88;4805536;29;19929;-72
2021/03/10 07:32:04;;;;;;;;;;;;;;;8.64;33.62;101808.03;4805891;29;19959;-71
2021/03/10 07:34:35;;;;;;;;;;;;;;;8.76;34.17;101819.41;4806107;29;20299;-72
2021/03/10 07:37:13;;;;;;;;;;;;;;;8.94;33.16;101821.13;4805592;29;20009;-71
2021/03/10 07:39:42;;;;;;;;;;;;;;;9.21;32.96;101817.50;4805098;29;19998;-71
2021/03/10 07:45:53;;;;;;;;;;;;;;;9.84;32.42;101816.25;4805569;29;19944;-71
2021/03/10 07:48:30;;;;;;;;;;;;;;;10.04;32.06;101816.09;4805610;29;20417;-72
2021/03/10 07:51:01;;;;;;;;;;;;;;;10.26;31.45;101806.22;4805285;29;20379;-72
2021/03/10 07:57:14;;;;;;;;;;;;;;;10.78;31.03;101811.91;4804949;29;19936;-72
2021/03/10 07:59:53;;;;;;;;;;;;;;;10.97;30.95;101809.94;4805190;29;20379;-72
2021/03/10 08:02:24;;;;;;;;;;;;;;;11.15;30.71;101797.34;4805381;29;20392;-72
2021/03/10 08:04:54;;;;;;;;;;;;;;;11.33;30.27;101799.75;4803848;29;20268;-72
2021/03/10 08:11:36;;;;;;;;;;;;;;;11.94;29.82;101774.09;4809029;29;19957;-72
2021/03/10 08:18:20;;;;;;;;;;;;;;;12.84;28.74;101779.56;4809285;29;19966;-72
2021/03/10 08:20:49;;;;;;;;;;;;;;;13.10;28.48;101784.31;4808721;29;20402;-72
2021/03/10 08:23:18;;;;;;;;;;;;;;;13.39;28.00;101786.34;4808352;29;20341;-72
2021/03/10 08:25:51;;;;;;;;;;;;;;;13.70;27.65;101783.00;4808629;29;19936;-72
2021/03/10 08:28:21;;;;;;;;;;;;;;;14.07;27.20;101770.56;4809298;29;20276;-72
2021/03/10 08:30:51;;;;;;;;;;;;;;;14.40;27.23;101771.47;4808271;29;19936;-72
2021/03/10 08:33:22;;;;;;;;;;;;;;;14.78;26.86;101776.66;4809095;29;20368;-72
2021/03/10 08:35:52;;;;;;;;;;;;;;;15.09;26.21;101775.78;4808323;29;20410;-72
2021/03/10 08:42:03;;;;;;;;;;;;;;;16.12;25.49;101774.28;4808030;29;19960;-72
2021/03/10 08:44:39;;;;;;;;;;;;;;;16.41;25.01;101783.94;4807964;29;20307;-73
2021/03/10 08:47:19;;;;;;;;;;;;;;;16.90;24.43;101786.69;4808414;29;20438;-72
2021/03/10 08:49:51;;;;;;;;;;;;;;;17.36;24.14;101783.16;4808165;29;20308;-72
2021/03/10 09:03:15;;;;;;;;;;;;;;;19.20;22.50;101776.16;4734513;30;19941;-72
2021/03/10 09:05:48;;;;;;;;;;;;;;;19.69;21.94;101762.16;4734202;30;20427;-73
2021/03/10 09:12:01;;;;;;;;;;;;;;;20.94;20.72;101759.34;4734908;30;20504;-73
2021/03/10 09:14:45;;;;;;;;;;;;;;;21.27;20.55;101759.28;4807756;29;20402;-73
2021/03/10 09:21:03;;;;;;;;;;;;;;;22.45;19.47;101761.41;4808163;29;19932;-73
2021/03/10 09:28:06;;;;;;;;;;;;;;;25.62;16.21;101747.16;4734598;30;19971;-73
2021/03/10 09:30:47;;;;;;;;;;;;;;;25.54;16.08;101750.44;4733951;30;20370;-74
2021/03/10 09:37:07;;;;;;;;;;;;;;;25.17;16.89;101745.91;4734215;30;20348;-74
2021/03/10 09:39:39;;;;;;;;;;;;;;;25.34;16.89;101747.38;4734372;30;20480;-74
2021/03/10 09:42:17;;;;;;;;;;;;;;;24.74;17.55;101743.63;4733712;30;20358;-74
2021/03/10 09:44:56;;;;;;;;;;;;;;;24.41;17.88;101747.72;4733526;30;20389;-74
2021/03/10 09:47:36;;;;;;;;;;;;;;;24.31;18.42;101746.66;4733673;30;20401;-74
2021/03/10 09:50:10;;;;;;;;;;;;;;;24.01;18.49;101747.81;4733840;30;20419;-74
2021/03/10 09:52:44;;;;;;;;;;;;;;;24.12;18.56;101741.66;4734067;30;20448;-74
2021/03/10 09:55:20;;;;;;;;;;;;;;;24.26;18.45;101740.72;4733814;30;20471;-74
2021/03/10 09:58:02;;;;;;;;;;;;;;;23.93;18.78;101734.81;4733912;30;20417;-74
2021/03/10 10:00:34;;;;;;;;;;;;;;;24.04;18.88;101732.22;4755816;29;20368;-74
2021/03/10 10:03:06;;;;;;;;;;;;;;;23.91;18.94;101725.94;4805857;29;19936;-74
2021/03/10 10:05:39;;;;;;;;;;;;;;;23.69;19.38;101726.50;4806976;29;20360;-74
2021/03/10 10:08:12;;;;;;;;;;;;;;;23.79;19.18;101718.66;4806952;29;20407;-74
2021/03/10 10:10:42;;;;;;;;;;;;;;;23.57;19.41;101728.19;4807094;29;20391;-74
2021/03/10 10:13:20;;;;;;;;;;;;;;;23.13;20.08;101730.16;4806942;29;20321;-74
2021/03/10 10:15:49;;;;;;;;;;;;;;;23.30;19.92;101718.28;4805934;29;20427;-75
2021/03/10 10:18:22;;;;;;;;;;;;;;;23.40;19.75;101709.56;4806903;29;20384;-74
2021/03/10 10:20:55;;;;;;;;;;;;;;;22.96;20.20;101715.06;4790456;29;19933;-74
2021/03/10 10:23:31;;;;;;;;;;;;;;;22.57;20.89;101703.16;4807106;29;20459;-75
2021/03/10 10:26:38;;;;;;;;;;;;;;;22.37;21.21;101712.50;4790273;29;20392;-74
2021/03/10 10:29:12;;;;;;;;;;;;;;;22.43;21.27;101705.84;4788915;29;19986;-74
2021/03/10 10:31:48;;;;;;;;;;;;;;;22.15;21.50;101689.50;4806521;29;20406;-74
2021/03/10 10:34:21;;;;;;;;;;;;;;;21.87;21.85;101691.19;4790329;29;20443;-73
2021/03/10 10:36:51;;;;;;;;;;;;;;;22.05;21.61;101691.06;4806586;29;20395;-74
2021/03/10 10:39:31;;;;;;;;;;;;;;;22.20;21.49;101689.25;4806577;29;20406;-74
2021/03/10 10:42:02;;;;;;;;;;;;;;;21.96;21.77;101683.53;4805945;29;20372;-74
2021/03/10 10:44:33;;;;;;;;;;;;;;;22.20;21.46;101684.72;4805559;29;20406;-74
2021/03/10 10:47:02;;;;;;;;;;;;;;;21.99;21.71;101692.28;4806417;29;19936;-74
2021/03/10 10:49:54;;;;;;;;;;;;;;;21.78;21.99;101694.44;4806337;29;20407;-74
2021/03/10 10:52:27;;;;;;;;;;;;;;;21.79;21.99;101684.56;4805437;29;20236;-74
2021/03/10 10:54:58;;;;;;;;;;;;;;;22.04;21.78;101689.31;4806104;29;20228;-74
2021/03/10 10:57:28;;;;;;;;;;;;;;;21.90;21.96;101698.22;4805839;29;20420;-75
2021/03/10 10:59:59;;;;;;;;;;;;;;;21.96;21.79;101694.28;4805610;29;20468;-74
2021/03/10 11:02:30;;;;;;;;;;;;;;;22.21;21.57;101691.00;4806061;29;20379;-74
2021/03/10 11:05:10;;;;;;;;;;;;;;;22.10;21.76;101680.00;4805994;29;19929;-74
2021/03/10 11:07:40;;;;;;;;;;;;;;;22.43;21.29;101689.66;4789496;29;19929;-74
2021/03/10 11:10:12;;;;;;;;;;;;;;;22.64;21.01;101685.63;4789251;29;20328;-74
2021/03/10 11:16:36;;;;;;;;;;;;;;;22.98;20.70;101682.56;4805979;29;19990;-74
2021/03/10 11:19:15;;;;;;;;;;;;;;;22.99;20.70;101681.63;4805679;29;20291;-73
2021/03/10 11:21:50;;;;;;;;;;;;;;;23.12;20.53;101684.38;4805979;29;19933;-74
2021/03/10 11:24:21;;;;;;;;;;;;;;;23.37;20.14;101679.09;4805381;29;20403;-74
2021/03/10 11:26:53;;;;;;;;;;;;;;;23.33;20.23;101677.56;4805394;29;20395;-74
2021/03/10 11:29:28;;;;;;;;;;;;;;;23.36;20.23;101679.19;4805418;29;20340;-74
2021/03/10 11:31:57;;;;;;;;;;;;;;;23.64;19.83;101667.41;4805749;29;20426;-78
2021/03/10 11:34:28;;;;;;;;;;;;;;;23.78;20.15;101668.28;4806216;29;19929;-73
2021/03/10 11:40:43;;;;;;;;;;;;;;;23.84;20.05;101667.88;4805754;29;20032;-75
2021/03/10 11:43:16;;;;;;;;;;;;;;;24.20;19.57;101671.69;4787365;30;19929;-74
2021/03/10 11:45:52;;;;;;;;;;;;;;;24.19;19.67;101672.66;4787189;30;20310;-74
2021/03/10 11:48:22;;;;;;;;;;;;;;;24.12;19.74;101668.69;4787360;30;20392;-74
2021/03/10 11:50:51;;;;;;;;;;;;;;;23.86;19.88;101658.69;4787301;30;19998;-74
2021/03/10 11:53:21;;;;;;;;;;;;;;;23.85;19.97;101659.66;4787089;30;20416;-74
2021/03/10 11:55:50;;;;;;;;;;;;;;;23.70;20.32;101652.63;4787026;30;20330;-74
2021/03/10 11:58:24;;;;;;;;;;;;;;;23.71;19.90;101657.91;4787239;30;19937;-74
2021/03/10 12:00:57;;;;;;;;;;;;;;;23.85;19.77;101656.09;4787061;30;20365;-74
2021/03/10 12:03:30;;;;;;;;;;;;;;;23.99;19.96;101663.25;4771284;30;20354;-75
2021/03/10 12:09:21;;;;;;;;;;;;;;;24.90;19.04;101658.63;4787252;30;20344;-75
2021/03/10 12:11:50;;;;;;;;;;;;;;;25.26;18.36;101665.00;4786872;30;20338;-75
2021/03/10 12:14:27;;;;;;;;;;;;;;;25.66;18.27;101670.97;4771227;30;20473;-75
2021/03/10 12:16:57;;;;;;;;;;;;;;;27.41;16.45;101658.84;4787162;30;19940;-75
2021/03/10 12:19:26;;;;;;;;;;;;;;;29.20;14.79;101667.59;4786894;30;20016;-75
2021/03/10 12:25:49;;;;;;;;;;;;;;;30.09;14.03;101652.94;4787027;30;19972;-75
2021/03/10 12:28:18;;;;;;;;;;;;;;;29.24;14.54;101651.84;4787431;30;20404;-75
2021/03/10 12:30:50;;;;;;;;;;;;;;;29.11;14.60;101654.84;4787013;30;19996;-75
2021/03/10 12:33:20;;;;;;;;;;;;;;;28.99;14.98;101651.38;4770874;30;20257;-75
2021/03/10 12:35:51;;;;;;;;;;;;;;;30.35;13.71;101648.66;4786581;29;19936;-74
2021/03/10 12:38:21;;;;;;;;;;;;;;;31.99;12.33;101635.78;4786831;30;19929;-75
2021/03/10 12:40:53;;;;;;;;;;;;;;;34.07;10.86;101628.66;4787484;29;19929;-75
2021/03/10 12:43:23;;;;;;;;;;;;;;;35.12;10.33;101640.38;4804977;29;20460;-76
2021/03/10 12:45:55;;;;;;;;;;;;;;;35.67;9.67;101623.75;4804530;29;20347;-75
2021/03/10 12:48:25;;;;;;;;;;;;;;;35.10;10.11;101631.44;4804821;29;20275;-75
2021/03/10 12:50:54;;;;;;;;;;;;;;;33.66;11.16;101620.50;4804681;29;20414;-75
2021/03/10 12:53:23;;;;;;;;;;;;;;;33.81;11.22;101612.44;4807194;29;20395;-76
2021/03/10 12:55:52;;;;;;;;;;;;;;;33.38;11.71;101620.00;4808291;29;19929;-76
2021/03/10 12:58:21;;;;;;;;;;;;;;;33.08;11.93;101620.50;4808101;29;20431;-76
2021/03/10 13:00:52;;;;;;;;;;;;;;;33.64;11.40;101600.63;4807677;29;20417;-76
2021/03/10 13:03:22;;;;;;;;;;;;;;;33.28;11.95;101591.91;4807547;29;20363;-75
2021/03/10 13:05:52;;;;;;;;;;;;;;;33.59;11.68;101581.09;4807860;29;20343;-75
2021/03/10 13:08:23;;;;;;;;;;;;;;;33.66;11.52;101582.13;4808201;29;20023;-75
2021/03/10 13:10:52;;;;;;;;;;;;;;;33.58;11.82;101572.00;4808191;29;20287;-75
2021/03/10 13:13:25;;;;;;;;;;;;;;;33.58;11.55;101573.88;4808496;29;20046;-76
2021/03/10 13:15:54;;;;;;;;;;;;;;;34.22;11.54;101570.28;4807095;29;20383;-75
2021/03/10 13:18:26;;;;;;;;;;;;;;;33.86;11.76;101573.53;4807225;29;20405;-76
2021/03/10 13:20:56;;;;;;;;;;;;;;;33.52;11.99;101583.66;4808290;29;19930;-76
2021/03/10 13:23:25;;;;;;;;;;;;;;;33.76;11.92;101560.81;4808001;29;20462;-76
2021/03/10 13:25:56;;;;;;;;;;;;;;;33.64;11.87;101561.38;4807664;29;20307;-75
2021/03/10 13:28:26;;;;;;;;;;;;;;;33.65;11.86;101558.44;4807386;29;20029;-75
2021/03/10 13:30:55;;;;;;;;;;;;;;;32.97;12.48;101563.28;4807022;29;20381;-75
2021/03/10 13:33:27;;;;;;;;;;;;;;;32.28;13.01;101567.03;4807396;29;20001;-76
2021/03/10 13:35:57;;;;;;;;;;;;;;;31.20;13.90;101553.69;4807768;29;20396;-75
2021/03/10 13:38:27;;;;;;;;;;;;;;;30.73;14.13;101560.25;4807669;29;20005;-76
2021/03/10 13:40:58;;;;;;;;;;;;;;;29.76;15.05;101550.66;4807530;29;20341;-76
2021/03/10 13:43:27;;;;;;;;;;;;;;;29.47;15.59;101548.88;4807223;29;20391;-76
2021/03/10 13:45:56;;;;;;;;;;;;;;;29.38;15.40;101555.19;4806510;29;20368;-76
2021/03/10 13:48:27;;;;;;;;;;;;;;;29.53;15.53;101558.34;4807416;29;20394;-76
2021/03/10 13:50:58;;;;;;;;;;;;;;;29.28;15.75;101556.06;4807719;29;20023;-76
2021/03/10 13:53:29;;;;;;;;;;;;;;;29.27;15.66;101551.66;4807155;29;20370;-76
2021/03/10 13:55:59;;;;;;;;;;;;;;;29.28;15.67;101553.34;4807188;29;20302;-76
2021/03/10 13:58:29;;;;;;;;;;;;;;;28.73;16.23;101553.06;4806786;29;19929;-76
2021/03/10 14:00:59;;;;;;;;;;;;;;;28.79;16.20;101549.78;4806637;29;19929;-75
2021/03/10 14:07:11;;;;;;;;;;;;;;;28.48;16.44;101555.28;4807519;29;20382;-75
2021/03/10 14:09:41;;;;;;;;;;;;;;;28.31;16.64;101549.53;4807505;29;20263;-75
2021/03/10 14:15:59;;;;;;;;;;;;;;;27.90;17.08;101535.03;4806973;29;19932;-75
2021/03/10 14:18:30;;;;;;;;;;;;;;;27.63;17.11;101538.31;4806676;29;19972;-76
2021/03/10 14:21:00;;;;;;;;;;;;;;;27.51;17.23;101523.94;4807009;29;20451;-75
2021/03/10 14:27:24;;;;;;;;;;;;;;;27.05;17.63;101520.63;4806455;29;19948;-76
2021/03/10 14:29:57;;;;;;;;;;;;;;;27.15;17.40;101507.97;4806514;29;19929;-75
2021/03/10 14:32:31;;;;;;;;;;;;;;;26.95;17.56;101506.13;4807027;29;20333;-75
2021/03/10 14:35:02;;;;;;;;;;;;;;;26.76;17.84;101512.25;4806780;29;20363;-75
2021/03/10 14:37:31;;;;;;;;;;;;;;;26.72;17.59;101506.19;4806618;29;20429;-75
2021/03/10 14:40:05;;;;;;;;;;;;;;;27.09;17.16;101499.50;4789923;29;20349;-75
2021/03/10 14:46:38;;;;;;;;;;;;;;;29.66;14.73;101493.47;4806422;29;19936;-75
2021/03/10 14:49:08;;;;;;;;;;;;;;;28.76;15.59;101501.03;4806344;29;20306;-75
2021/03/10 14:51:38;;;;;;;;;;;;;;;27.94;16.09;101501.13;4806374;29;19929;-75
2021/03/10 15:04:17;;;;;;;;;;;;;;;26.34;17.48;101488.53;5891330;24;19930;-77
2021/03/10 15:11:03;;;;;;;;;;;;;;;25.41;18.49;101481.53;4765108;30;20025;-78
2021/03/10 15:32:10;;;;;;;;;;;;;;;23.18;20.19;101463.56;4783437;29;19961;-78
2021/03/10 15:35:25;;;;;;;;;;;;;;;23.01;20.34;101464.72;4765999;30;20031;-77
2021/03/10 15:46:01;;;;;;;;;;;;;;;22.14;21.16;101455.22;4765964;30;20845;-78
2021/03/10 15:48:49;;;;;;;;;;;;;;;21.92;21.57;101470.09;4750337;30;19930;-78
2021/03/10 15:54:51;;;;;;;;;;;;;;;21.39;21.77;101453.59;4707370;30;19977;-78
2021/03/10 15:57:47;;;;;;;;;;;;;;;21.17;21.79;101443.28;4736720;30;19933;-75
2021/03/10 16:00:14;;;;;;;;;;;;;;;21.08;22.14;101442.06;4765980;30;20128;-78
2021/03/10 16:02:41;;;;;;;;;;;;;;;20.94;22.29;101448.25;4765005;30;22669;-77